Shin-oh Maru — JG5594 — position and weather

sailwx.info

Track history (hours):
 
Tides and Currents Weather Stations Pressure Air Temp Water Temp Dewpoint Dewpoint Depression Visibility Wind Speed Wind Dir Waves Ship Positions

Shin-oh Maru

Last reported at 2014-Dec-20 16:31 UTC. Time now 2014-Dec-20 20:07 UTC.
Position N 35°10' E 139°45'.

Length 161 m; draft 7 m.

Type: Ship (hazmat cat A). MMSI: 431100859.

Date/timePositionNaut miles runAvg speedWind from/ knotsBaromVisibWave heightAir tempDewpointWater temp
2014-Dec-20 16:31N 35°10' E 139°45'1212.9
2014-Dec-20 15:34N 35°22' E 139°42'1414.0
2014-Dec-20 14:33N 35°36' E 139°47'2 0.4
2014-Dec-20 09:18N 35°38' E 139°46'6 8.5
2014-Dec-20 08:33N 35°33' E 139°51'1211.9
2014-Dec-20 07:33N 35°22' E 139°45'1212.4
2014-Dec-20 06:33N 35°10' E 139°46'  
2014-Dec-16 16:14N 35°07' E 139°45'1014.3
2014-Dec-16 15:33N 35°17' E 139°45'1414.1
2014-Dec-16 14:34N 35°30' E 139°51'9 0.4
2014-Dec-15 14:32N 35°38' E 139°46'8 2.3
2014-Dec-15 11:08N 35°33' E 139°53'813.9
2014-Dec-15 10:33N 35°26' E 139°48'1111.4
2014-Dec-15 09:33N 35°15' E 139°47'  
2014-Dec-12 17:20N 34°57' E 140°09'2312.8
2014-Dec-12 15:32N 35°09' E 139°45'1414.5
2014-Dec-12 14:34N 35°23' E 139°43'1413.9
2014-Dec-12 13:33N 35°37' E 139°46'8 1.3
2014-Dec-12 07:33N 35°31' E 139°52'1514.6
2014-Dec-12 06:33N 35°17' E 139°45'  
Track history (hours):
 
Tides and Currents Weather Stations Pressure Air Temp Water Temp Dewpoint Dewpoint Depression Visibility Wind Speed Wind Dir Waves Ship Positions

Shin-oh Maru

Last reported at 2014-Dec-20 16:31 UTC. Time now 2014-Dec-20 20:07 UTC.
Position N 35°10' E 139°45'.

Length 161 m; draft 7 m.

Type: Ship (hazmat cat A). MMSI: 431100859.

Date/timePositionNaut miles runAvg speedWind from/ knotsBaromVisibWave heightAir tempDewpointWater temp
2014-Dec-20 16:31N 35°10' E 139°45'1212.9
2014-Dec-20 15:34N 35°22' E 139°42'1414.0
2014-Dec-20 14:33N 35°36' E 139°47'2 0.4
2014-Dec-20 09:18N 35°38' E 139°46'6 8.5
2014-Dec-20 08:33N 35°33' E 139°51'1211.9
2014-Dec-20 07:33N 35°22' E 139°45'1212.4
2014-Dec-20 06:33N 35°10' E 139°46'  
2014-Dec-16 16:14N 35°07' E 139°45'1014.3
2014-Dec-16 15:33N 35°17' E 139°45'1414.1
2014-Dec-16 14:34N 35°30' E 139°51'9 0.4
2014-Dec-15 14:32N 35°38' E 139°46'8 2.3
2014-Dec-15 11:08N 35°33' E 139°53'813.9
2014-Dec-15 10:33N 35°26' E 139°48'1111.4
2014-Dec-15 09:33N 35°15' E 139°47'  
2014-Dec-12 17:20N 34°57' E 140°09'2312.8
2014-Dec-12 15:32N 35°09' E 139°45'1414.5
2014-Dec-12 14:34N 35°23' E 139°43'1413.9
2014-Dec-12 13:33N 35°37' E 139°46'8 1.3
2014-Dec-12 07:33N 35°31' E 139°52'1514.6
2014-Dec-12 06:33N 35°17' E 139°45'  

Dump ship's entire track history